sensor_id;sensor_type;location;lat;lon;timestamp;P1;P2;P0
67892;PMS7003;54688;52.376;16.744;2023-01-08T00:01:54;52;40;
67892;PMS7003;54688;52.376;16.744;2023-01-08T00:04:56;53;41;
67892;PMS7003;54688;52.376;16.744;2023-01-08T00:07:58;54;40;
67892;PMS7003;54688;52.376;16.744;2023-01-08T00:11:00;54;44;
67892;PMS7003;54688;52.376;16.744;2023-01-08T00:14:03;58;46;
67892;PMS7003;54688;52.376;16.744;2023-01-08T00:17:05;54;40;
67892;PMS7003;54688;52.376;16.744;2023-01-08T00:20:08;58;42;
67892;PMS7003;54688;52.376;16.744;2023-01-08T00:23:10;57;41;
67892;PMS7003;54688;52.376;16.744;2023-01-08T00:26:12;56;42;
67892;PMS7003;54688;52.376;16.744;2023-01-08T00:29:14;52;39;
67892;PMS7003;54688;52.376;16.744;2023-01-08T00:32:17;55;43;
67892;PMS7003;54688;52.376;16.744;2023-01-08T00:35:19;55;43;
67892;PMS7003;54688;52.376;16.744;2023-01-08T00:38:24;54;43;
67892;PMS7003;54688;52.376;16.744;2023-01-08T00:41:26;55;43;
67892;PMS7003;54688;52.376;16.744;2023-01-08T00:44:28;63;43;
67892;PMS7003;54688;52.376;16.744;2023-01-08T00:47:30;56;43;
67892;PMS7003;54688;52.376;16.744;2023-01-08T00:50:32;55;43;
67892;PMS7003;54688;52.376;16.744;2023-01-08T00:53:35;51;39;
67892;PMS7003;54688;52.376;16.744;2023-01-08T00:56:37;52;40;
67892;PMS7003;54688;52.376;16.744;2023-01-08T00:59:38;57;45;
67892;PMS7003;54688;52.376;16.744;2023-01-08T01:02:41;61;46;
67892;PMS7003;54688;52.376;16.744;2023-01-08T01:05:43;57;41;
67892;PMS7003;54688;52.376;16.744;2023-01-08T01:08:46;57;45;
67892;PMS7003;54688;52.376;16.744;2023-01-08T01:11:48;54;43;
67892;PMS7003;54688;52.376;16.744;2023-01-08T01:14:51;63;44;
67892;PMS7003;54688;52.376;16.744;2023-01-08T01:17:53;55;41;
67892;PMS7003;54688;52.376;16.744;2023-01-08T01:20:55;51;39;
67892;PMS7003;54688;52.376;16.744;2023-01-08T01:24:00;55;41;
67892;PMS7003;54688;52.376;16.744;2023-01-08T01:27:03;55;42;
67892;PMS7003;54688;52.376;16.744;2023-01-08T01:33:05;58;43;
67892;PMS7003;54688;52.376;16.744;2023-01-08T01:36:08;48;40;
67892;PMS7003;54688;52.376;16.744;2023-01-08T01:39:11;59;44;
67892;PMS7003;54688;52.376;16.744;2023-01-08T01:42:14;55;43;
67892;PMS7003;54688;52.376;16.744;2023-01-08T01:45:18;52;40;
67892;PMS7003;54688;52.376;16.744;2023-01-08T01:48:21;49;42;
67892;PMS7003;54688;52.376;16.744;2023-01-08T01:51:28;58;42;
67892;PMS7003;54688;52.376;16.744;2023-01-08T01:54:31;53;42;
67892;PMS7003;54688;52.376;16.744;2023-01-08T01:57:33;56;41;
67892;PMS7003;54688;52.376;16.744;2023-01-08T02:00:35;56;41;
67892;PMS7003;54688;52.376;16.744;2023-01-08T02:03:38;54;41;
67892;PMS7003;54688;52.376;16.744;2023-01-08T02:06:45;54;41;
67892;PMS7003;54688;52.376;16.744;2023-01-08T02:09:52;53;43;
67892;PMS7003;54688;52.376;16.744;2023-01-08T02:12:57;55;41;
67892;PMS7003;54688;52.376;16.744;2023-01-08T02:16:06;54;42;
67892;PMS7003;54688;52.376;16.744;2023-01-08T02:19:16;60;45;
67892;PMS7003;54688;52.376;16.744;2023-01-08T02:22:33;56;40;
67892;PMS7003;54688;52.376;16.744;2023-01-08T02:25:52;55;39;
67892;PMS7003;54688;52.376;16.744;2023-01-08T02:28:57;54;41;
67892;PMS7003;54688;52.376;16.744;2023-01-08T02:32:00;55;42;
67892;PMS7003;54688;52.376;16.744;2023-01-08T02:38:01;60;44;
67892;PMS7003;54688;52.376;16.744;2023-01-08T02:41:08;54;42;
67892;PMS7003;54688;52.376;16.744;2023-01-08T02:44:13;47;38;
67892;PMS7003;54688;52.376;16.744;2023-01-08T02:47:24;53;40;
67892;PMS7003;54688;52.376;16.744;2023-01-08T02:50:30;51;41;
67892;PMS7003;54688;52.376;16.744;2023-01-08T02:53:36;52;40;
67892;PMS7003;54688;52.376;16.744;2023-01-08T02:56:43;57;45;
67892;PMS7003;54688;52.376;16.744;2023-01-08T02:59:47;55;40;
67892;PMS7003;54688;52.376;16.744;2023-01-08T03:02:59;56;40;
67892;PMS7003;54688;52.376;16.744;2023-01-08T03:06:05;54;43;
67892;PMS7003;54688;52.376;16.744;2023-01-08T03:09:08;54;41;
67892;PMS7003;54688;52.376;16.744;2023-01-08T03:12:15;56;41;
67892;PMS7003;54688;52.376;16.744;2023-01-08T03:15:24;56;43;
67892;PMS7003;54688;52.376;16.744;2023-01-08T03:18:30;52;41;
67892;PMS7003;54688;52.376;16.744;2023-01-08T03:21:34;55;41;
67892;PMS7003;54688;52.376;16.744;2023-01-08T03:24:38;59;44;
67892;PMS7003;54688;52.376;16.744;2023-01-08T03:27:43;63;46;
67892;PMS7003;54688;52.376;16.744;2023-01-08T03:30:47;52;42;
67892;PMS7003;54688;52.376;16.744;2023-01-08T03:33:50;60;44;
67892;PMS7003;54688;52.376;16.744;2023-01-08T03:36:54;55;43;
67892;PMS7003;54688;52.376;16.744;2023-01-08T03:40:03;56;43;
67892;PMS7003;54688;52.376;16.744;2023-01-08T03:43:06;52;41;
67892;PMS7003;54688;52.376;16.744;2023-01-08T03:46:12;56;44;
67892;PMS7003;54688;52.376;16.744;2023-01-08T03:49:16;56;42;
67892;PMS7003;54688;52.376;16.744;2023-01-08T03:52:20;53;38;
67892;PMS7003;54688;52.376;16.744;2023-01-08T03:55:22;59;40;
67892;PMS7003;54688;52.376;16.744;2023-01-08T03:58:24;49;39;
67892;PMS7003;54688;52.376;16.744;2023-01-08T04:01:26;54;39;
67892;PMS7003;54688;52.376;16.744;2023-01-08T04:04:28;51;38;
67892;PMS7003;54688;52.376;16.744;2023-01-08T04:07:30;60;42;
67892;PMS7003;54688;52.376;16.744;2023-01-08T04:10:33;56;40;
67892;PMS7003;54688;52.376;16.744;2023-01-08T04:13:35;49;40;
67892;PMS7003;54688;52.376;16.744;2023-01-08T04:16:38;54;41;
67892;PMS7003;54688;52.376;16.744;2023-01-08T04:19:40;49;38;
67892;PMS7003;54688;52.376;16.744;2023-01-08T04:22:43;51;40;
67892;PMS7003;54688;52.376;16.744;2023-01-08T04:25:45;57;42;
67892;PMS7003;54688;52.376;16.744;2023-01-08T04:28:48;56;42;
67892;PMS7003;54688;52.376;16.744;2023-01-08T04:31:50;52;41;
67892;PMS7003;54688;52.376;16.744;2023-01-08T04:34:53;55;43;
67892;PMS7003;54688;52.376;16.744;2023-01-08T04:37:54;58;45;
67892;PMS7003;54688;52.376;16.744;2023-01-08T04:40:57;42;37;
67892;PMS7003;54688;52.376;16.744;2023-01-08T04:43:59;49;37;
67892;PMS7003;54688;52.376;16.744;2023-01-08T04:52:59;52;38;
67892;PMS7003;54688;52.376;16.744;2023-01-08T04:56:03;56;42;
67892;PMS7003;54688;52.376;16.744;2023-01-08T04:59:06;55;40;
67892;PMS7003;54688;52.376;16.744;2023-01-08T05:02:08;54;38;
67892;PMS7003;54688;52.376;16.744;2023-01-08T05:05:10;54;40;
67892;PMS7003;54688;52.376;16.744;2023-01-08T05:08:12;55;41;
67892;PMS7003;54688;52.376;16.744;2023-01-08T05:11:14;53;41;
67892;PMS7003;54688;52.376;16.744;2023-01-08T05:14:16;54;38;
67892;PMS7003;54688;52.376;16.744;2023-01-08T05:17:19;51;40;
67892;PMS7003;54688;52.376;16.744;2023-01-08T05:20:21;52;40;
67892;PMS7003;54688;52.376;16.744;2023-01-08T05:23:23;52;41;
67892;PMS7003;54688;52.376;16.744;2023-01-08T05:26:25;55;39;
67892;PMS7003;54688;52.376;16.744;2023-01-08T05:29:27;50;37;
67892;PMS7003;54688;52.376;16.744;2023-01-08T05:32:29;52;41;
67892;PMS7003;54688;52.376;16.744;2023-01-08T05:35:31;53;37;
67892;PMS7003;54688;52.376;16.744;2023-01-08T05:38:33;48;37;
67892;PMS7003;54688;52.376;16.744;2023-01-08T05:41:35;45;34;
67892;PMS7003;54688;52.376;16.744;2023-01-08T05:44:38;48;37;
67892;PMS7003;54688;52.376;16.744;2023-01-08T05:47:40;48;37;
67892;PMS7003;54688;52.376;16.744;2023-01-08T05:50:42;48;35;
67892;PMS7003;54688;52.376;16.744;2023-01-08T05:53:44;52;42;
67892;PMS7003;54688;52.376;16.744;2023-01-08T05:56:46;46;38;
67892;PMS7003;54688;52.376;16.744;2023-01-08T05:59:48;49;38;
67892;PMS7003;54688;52.376;16.744;2023-01-08T06:02:50;43;35;
67892;PMS7003;54688;52.376;16.744;2023-01-08T06:05:57;51;37;
67892;PMS7003;54688;52.376;16.744;2023-01-08T06:08:59;45;37;
67892;PMS7003;54688;52.376;16.744;2023-01-08T06:12:01;48;38;
67892;PMS7003;54688;52.376;16.744;2023-01-08T06:15:05;43;35;
67892;PMS7003;54688;52.376;16.744;2023-01-08T06:18:07;52;40;
67892;PMS7003;54688;52.376;16.744;2023-01-08T06:24:09;53;42;
67892;PMS7003;54688;52.376;16.744;2023-01-08T06:27:11;52;39;
67892;PMS7003;54688;52.376;16.744;2023-01-08T06:30:14;44;35;
67892;PMS7003;54688;52.376;16.744;2023-01-08T06:33:16;57;38;
67892;PMS7003;54688;52.376;16.744;2023-01-08T06:36:18;46;37;
67892;PMS7003;54688;52.376;16.744;2023-01-08T06:39:20;56;42;
67892;PMS7003;54688;52.376;16.744;2023-01-08T06:42:23;56;42;
67892;PMS7003;54688;52.376;16.744;2023-01-08T06:45:25;51;38;
67892;PMS7003;54688;52.376;16.744;2023-01-08T06:48:27;42;36;
67892;PMS7003;54688;52.376;16.744;2023-01-08T06:51:29;48;37;
67892;PMS7003;54688;52.376;16.744;2023-01-08T06:54:31;51;42;
67892;PMS7003;54688;52.376;16.744;2023-01-08T06:57:33;49;37;
67892;PMS7003;54688;52.376;16.744;2023-01-08T07:00:35;59;44;
67892;PMS7003;54688;52.376;16.744;2023-01-08T07:03:37;40;35;
67892;PMS7003;54688;52.376;16.744;2023-01-08T07:06:39;50;37;
67892;PMS7003;54688;52.376;16.744;2023-01-08T07:09:41;48;38;
67892;PMS7003;54688;52.376;16.744;2023-01-08T07:12:43;48;40;
67892;PMS7003;54688;52.376;16.744;2023-01-08T07:15:45;56;40;
67892;PMS7003;54688;52.376;16.744;2023-01-08T07:18:47;46;37;
67892;PMS7003;54688;52.376;16.744;2023-01-08T07:21:49;48;40;
67892;PMS7003;54688;52.376;16.744;2023-01-08T07:24:51;53;40;
67892;PMS7003;54688;52.376;16.744;2023-01-08T07:27:54;54;42;
67892;PMS7003;54688;52.376;16.744;2023-01-08T07:30:56;56;41;
67892;PMS7003;54688;52.376;16.744;2023-01-08T07:33:58;50;38;
67892;PMS7003;54688;52.376;16.744;2023-01-08T07:37:01;50;41;
67892;PMS7003;54688;52.376;16.744;2023-01-08T07:40:05;48;38;
67892;PMS7003;54688;52.376;16.744;2023-01-08T07:43:08;51;39;
67892;PMS7003;54688;52.376;16.744;2023-01-08T07:46:10;52;39;
67892;PMS7003;54688;52.376;16.744;2023-01-08T07:49:12;53;38;
67892;PMS7003;54688;52.376;16.744;2023-01-08T07:52:14;52;42;
67892;PMS7003;54688;52.376;16.744;2023-01-08T07:55:17;50;38;
67892;PMS7003;54688;52.376;16.744;2023-01-08T07:58:19;51;39;
67892;PMS7003;54688;52.376;16.744;2023-01-08T08:01:23;55;43;
67892;PMS7003;54688;52.376;16.744;2023-01-08T08:04:27;52;38;
67892;PMS7003;54688;52.376;16.744;2023-01-08T08:07:29;45;35;
67892;PMS7003;54688;52.376;16.744;2023-01-08T08:10:31;55;41;
67892;PMS7003;54688;52.376;16.744;2023-01-08T08:13:34;52;38;
67892;PMS7003;54688;52.376;16.744;2023-01-08T08:16:36;55;43;
67892;PMS7003;54688;52.376;16.744;2023-01-08T08:19:39;58;43;
67892;PMS7003;54688;52.376;16.744;2023-01-08T08:22:41;49;35;
67892;PMS7003;54688;52.376;16.744;2023-01-08T08:25:44;54;39;
67892;PMS7003;54688;52.376;16.744;2023-01-08T08:28:46;54;40;
67892;PMS7003;54688;52.376;16.744;2023-01-08T08:31:48;49;41;
67892;PMS7003;54688;52.376;16.744;2023-01-08T08:34:50;55;44;
67892;PMS7003;54688;52.376;16.744;2023-01-08T08:37:52;53;38;
67892;PMS7003;54688;52.376;16.744;2023-01-08T08:40:55;51;42;
67892;PMS7003;54688;52.376;16.744;2023-01-08T08:43:56;51;37;
67892;PMS7003;54688;52.376;16.744;2023-01-08T08:46:58;54;39;
67892;PMS7003;54688;52.376;16.744;2023-01-08T08:50:00;53;40;
67892;PMS7003;54688;52.376;16.744;2023-01-08T08:53:04;49;36;
67892;PMS7003;54688;52.376;16.744;2023-01-08T08:56:06;52;41;
67892;PMS7003;54688;52.376;16.744;2023-01-08T08:59:09;52;40;
67892;PMS7003;54688;52.376;16.744;2023-01-08T09:02:11;54;40;
67892;PMS7003;54688;52.376;16.744;2023-01-08T09:05:13;55;43;
67892;PMS7003;54688;52.376;16.744;2023-01-08T09:08:15;51;40;
67892;PMS7003;54688;52.376;16.744;2023-01-08T09:11:17;51;41;
67892;PMS7003;54688;52.376;16.744;2023-01-08T09:14:20;49;39;
67892;PMS7003;54688;52.376;16.744;2023-01-08T09:17:23;58;40;
67892;PMS7003;54688;52.376;16.744;2023-01-08T09:20:26;55;40;
67892;PMS7003;54688;52.376;16.744;2023-01-08T09:23:27;47;36;
67892;PMS7003;54688;52.376;16.744;2023-01-08T09:26:30;49;36;
67892;PMS7003;54688;52.376;16.744;2023-01-08T09:29:32;48;39;
67892;PMS7003;54688;52.376;16.744;2023-01-08T09:32:34;50;39;
67892;PMS7003;54688;52.376;16.744;2023-01-08T09:35:36;48;38;
67892;PMS7003;54688;52.376;16.744;2023-01-08T09:38:39;55;43;
67892;PMS7003;54688;52.376;16.744;2023-01-08T09:41:44;47;38;
67892;PMS7003;54688;52.376;16.744;2023-01-08T09:44:47;51;40;
67892;PMS7003;54688;52.376;16.744;2023-01-08T09:47:52;52;41;
67892;PMS7003;54688;52.376;16.744;2023-01-08T09:50:55;53;40;
67892;PMS7003;54688;52.376;16.744;2023-01-08T09:53:58;56;39;
67892;PMS7003;54688;52.376;16.744;2023-01-08T09:57:00;51;39;
67892;PMS7003;54688;52.376;16.744;2023-01-08T10:00:12;48;38;
67892;PMS7003;54688;52.376;16.744;2023-01-08T10:03:15;54;41;
67892;PMS7003;54688;52.376;16.744;2023-01-08T10:06:17;49;36;
67892;PMS7003;54688;52.376;16.744;2023-01-08T10:09:23;48;39;
67892;PMS7003;54688;52.376;16.744;2023-01-08T10:12:27;55;42;
67892;PMS7003;54688;52.376;16.744;2023-01-08T10:15:30;50;38;
67892;PMS7003;54688;52.376;16.744;2023-01-08T10:18:34;51;41;
67892;PMS7003;54688;52.376;16.744;2023-01-08T10:21:38;46;39;
67892;PMS7003;54688;52.376;16.744;2023-01-08T10:24:41;49;35;
67892;PMS7003;54688;52.376;16.744;2023-01-08T10:27:45;47;38;
67892;PMS7003;54688;52.376;16.744;2023-01-08T10:30:50;41;36;
67892;PMS7003;54688;52.376;16.744;2023-01-08T10:33:52;50;38;
67892;PMS7003;54688;52.376;16.744;2023-01-08T10:36:55;45;35;
67892;PMS7003;54688;52.376;16.744;2023-01-08T10:40:03;46;37;
67892;PMS7003;54688;52.376;16.744;2023-01-08T10:43:13;51;40;
67892;PMS7003;54688;52.376;16.744;2023-01-08T10:46:21;44;35;
67892;PMS7003;54688;52.376;16.744;2023-01-08T10:49:29;50;37;
67892;PMS7003;54688;52.376;16.744;2023-01-08T10:52:33;45;35;
67892;PMS7003;54688;52.376;16.744;2023-01-08T10:55:35;56;38;
67892;PMS7003;54688;52.376;16.744;2023-01-08T10:58:40;49;36;
67892;PMS7003;54688;52.376;16.744;2023-01-08T11:01:45;48;38;
67892;PMS7003;54688;52.376;16.744;2023-01-08T11:04:49;45;36;
67892;PMS7003;54688;52.376;16.744;2023-01-08T11:07:55;54;43;
67892;PMS7003;54688;52.376;16.744;2023-01-08T11:11:00;54;40;
67892;PMS7003;54688;52.376;16.744;2023-01-08T11:14:04;49;39;
67892;PMS7003;54688;52.376;16.744;2023-01-08T11:17:08;43;33;
67892;PMS7003;54688;52.376;16.744;2023-01-08T11:20:19;43;32;
67892;PMS7003;54688;52.376;16.744;2023-01-08T11:23:24;51;38;
67892;PMS7003;54688;52.376;16.744;2023-01-08T11:26:28;47;36;
67892;PMS7003;54688;52.376;16.744;2023-01-08T11:29:35;46;34;
67892;PMS7003;54688;52.376;16.744;2023-01-08T11:32:43;41;36;
67892;PMS7003;54688;52.376;16.744;2023-01-08T11:35:49;49;39;
67892;PMS7003;54688;52.376;16.744;2023-01-08T11:38:54;50;39;
67892;PMS7003;54688;52.376;16.744;2023-01-08T11:42:10;50;38;
67892;PMS7003;54688;52.376;16.744;2023-01-08T11:45:19;47;35;
67892;PMS7003;54688;52.376;16.744;2023-01-08T11:48:34;48;37;
67892;PMS7003;54688;52.376;16.744;2023-01-08T11:51:52;47;37;
67892;PMS7003;54688;52.376;16.744;2023-01-08T11:55:11;47;35;
67892;PMS7003;54688;52.376;16.744;2023-01-08T11:58:21;46;36;
67892;PMS7003;54688;52.376;16.744;2023-01-08T12:01:34;49;38;
67892;PMS7003;54688;52.376;16.744;2023-01-08T12:04:50;39;33;
67892;PMS7003;54688;52.376;16.744;2023-01-08T12:08:02;45;34;
67892;PMS7003;54688;52.376;16.744;2023-01-08T12:11:11;49;39;
67892;PMS7003;54688;52.376;16.744;2023-01-08T12:14:24;42;34;
67892;PMS7003;54688;52.376;16.744;2023-01-08T12:17:41;40;32;
67892;PMS7003;54688;52.376;16.744;2023-01-08T12:20:53;47;34;
67892;PMS7003;54688;52.376;16.744;2023-01-08T12:24:10;46;35;
67892;PMS7003;54688;52.376;16.744;2023-01-08T12:27:22;47;36;
67892;PMS7003;54688;52.376;16.744;2023-01-08T12:30:35;39;32;
67892;PMS7003;54688;52.376;16.744;2023-01-08T12:33:45;43;35;
67892;PMS7003;54688;52.376;16.744;2023-01-08T12:36:52;47;34;
67892;PMS7003;54688;52.376;16.744;2023-01-08T12:39:59;44;37;
67892;PMS7003;54688;52.376;16.744;2023-01-08T12:43:06;44;37;
67892;PMS7003;54688;52.376;16.744;2023-01-08T12:46:12;48;39;
67892;PMS7003;54688;52.376;16.744;2023-01-08T12:49:22;44;35;
67892;PMS7003;54688;52.376;16.744;2023-01-08T12:52:30;45;39;
67892;PMS7003;54688;52.376;16.744;2023-01-08T12:55:42;44;37;
67892;PMS7003;54688;52.376;16.744;2023-01-08T12:59:00;41;35;
67892;PMS7003;54688;52.376;16.744;2023-01-08T13:02:17;49;39;
67892;PMS7003;54688;52.376;16.744;2023-01-08T13:05:30;52;39;
67892;PMS7003;54688;52.376;16.744;2023-01-08T13:08:35;49;37;
67892;PMS7003;54688;52.376;16.744;2023-01-08T13:11:38;50;37;
67892;PMS7003;54688;52.376;16.744;2023-01-08T13:14:41;45;35;
67892;PMS7003;54688;52.376;16.744;2023-01-08T13:17:46;45;35;
67892;PMS7003;54688;52.376;16.744;2023-01-08T13:20:54;49;39;
67892;PMS7003;54688;52.376;16.744;2023-01-08T13:23:59;60;44;
67892;PMS7003;54688;52.376;16.744;2023-01-08T13:27:11;56;44;
67892;PMS7003;54688;52.376;16.744;2023-01-08T13:30:38;51;42;
67892;PMS7003;54688;52.376;16.744;2023-01-08T13:33:40;51;39;
67892;PMS7003;54688;52.376;16.744;2023-01-08T13:36:42;55;41;
67892;PMS7003;54688;52.376;16.744;2023-01-08T13:39:56;58;43;
67892;PMS7003;54688;52.376;16.744;2023-01-08T13:42:58;70;51;
67892;PMS7003;54688;52.376;16.744;2023-01-08T13:46:06;56;42;
67892;PMS7003;54688;52.376;16.744;2023-01-08T13:49:20;58;44;
67892;PMS7003;54688;52.376;16.744;2023-01-08T13:52:32;55;41;
67892;PMS7003;54688;52.376;16.744;2023-01-08T13:55:37;56;45;
67892;PMS7003;54688;52.376;16.744;2023-01-08T13:58:44;54;44;
67892;PMS7003;54688;52.376;16.744;2023-01-08T14:01:51;54;43;
67892;PMS7003;54688;52.376;16.744;2023-01-08T14:04:53;52;41;
67892;PMS7003;54688;52.376;16.744;2023-01-08T14:07:56;53;41;
67892;PMS7003;54688;52.376;16.744;2023-01-08T14:10:59;51;39;
67892;PMS7003;54688;52.376;16.744;2023-01-08T14:14:01;51;42;
67892;PMS7003;54688;52.376;16.744;2023-01-08T14:17:03;53;44;
67892;PMS7003;54688;52.376;16.744;2023-01-08T14:20:09;58;46;
67892;PMS7003;54688;52.376;16.744;2023-01-08T14:23:18;58;43;
67892;PMS7003;54688;52.376;16.744;2023-01-08T14:26:26;58;46;
67892;PMS7003;54688;52.376;16.744;2023-01-08T14:29:29;78;60;
67892;PMS7003;54688;52.376;16.744;2023-01-08T14:32:32;61;46;
67892;PMS7003;54688;52.376;16.744;2023-01-08T14:35:34;60;47;
67892;PMS7003;54688;52.376;16.744;2023-01-08T14:38:37;56;44;
67892;PMS7003;54688;52.376;16.744;2023-01-08T14:41:40;52;41;
67892;PMS7003;54688;52.376;16.744;2023-01-08T14:44:43;58;45;
67892;PMS7003;54688;52.376;16.744;2023-01-08T14:47:46;62;46;
67892;PMS7003;54688;52.376;16.744;2023-01-08T14:50:59;69;50;
67892;PMS7003;54688;52.376;16.744;2023-01-08T14:54:04;61;46;
67892;PMS7003;54688;52.376;16.744;2023-01-08T14:57:10;56;43;
67892;PMS7003;54688;52.376;16.744;2023-01-08T15:00:16;47;38;
67892;PMS7003;54688;52.376;16.744;2023-01-08T15:03:36;57;44;
67892;PMS7003;54688;52.376;16.744;2023-01-08T15:06:38;62;47;
67892;PMS7003;54688;52.376;16.744;2023-01-08T15:09:40;65;48;
67892;PMS7003;54688;52.376;16.744;2023-01-08T15:12:42;64;49;
67892;PMS7003;54688;52.376;16.744;2023-01-08T15:15:52;69;52;
67892;PMS7003;54688;52.376;16.744;2023-01-08T15:19:01;66;52;
67892;PMS7003;54688;52.376;16.744;2023-01-08T15:22:14;69;52;
67892;PMS7003;54688;52.376;16.744;2023-01-08T15:25:23;66;49;
67892;PMS7003;54688;52.376;16.744;2023-01-08T15:28:26;67;52;
67892;PMS7003;54688;52.376;16.744;2023-01-08T15:31:30;63;51;
67892;PMS7003;54688;52.376;16.744;2023-01-08T15:34:33;75;60;
67892;PMS7003;54688;52.376;16.744;2023-01-08T15:37:35;74;61;
67892;PMS7003;54688;52.376;16.744;2023-01-08T15:40:37;82;68;
67892;PMS7003;54688;52.376;16.744;2023-01-08T15:43:39;72;55;
67892;PMS7003;54688;52.376;16.744;2023-01-08T15:46:41;81;65;
67892;PMS7003;54688;52.376;16.744;2023-01-08T15:49:43;80;69;
67892;PMS7003;54688;52.376;16.744;2023-01-08T15:52:46;74;61;
67892;PMS7003;54688;52.376;16.744;2023-01-08T15:55:48;72;52;
67892;PMS7003;54688;52.376;16.744;2023-01-08T15:58:51;74;57;
67892;PMS7003;54688;52.376;16.744;2023-01-08T16:01:53;81;70;
67892;PMS7003;54688;52.376;16.744;2023-01-08T16:04:55;74;63;
67892;PMS7003;54688;52.376;16.744;2023-01-08T16:07:58;80;64;
67892;PMS7003;54688;52.376;16.744;2023-01-08T16:11:00;95;79;
67892;PMS7003;54688;52.376;16.744;2023-01-08T16:14:02;84;73;
67892;PMS7003;54688;52.376;16.744;2023-01-08T16:17:05;91;77;
67892;PMS7003;54688;52.376;16.744;2023-01-08T16:20:09;78;69;
67892;PMS7003;54688;52.376;16.744;2023-01-08T16:23:12;73;59;
67892;PMS7003;54688;52.376;16.744;2023-01-08T16:26:14;68;52;
67892;PMS7003;54688;52.376;16.744;2023-01-08T16:29:17;68;51;
67892;PMS7003;54688;52.376;16.744;2023-01-08T16:32:19;64;50;
67892;PMS7003;54688;52.376;16.744;2023-01-08T16:35:21;79;64;
67892;PMS7003;54688;52.376;16.744;2023-01-08T16:38:23;70;52;
67892;PMS7003;54688;52.376;16.744;2023-01-08T16:41:26;69;52;
67892;PMS7003;54688;52.376;16.744;2023-01-08T16:44:29;70;53;
67892;PMS7003;54688;52.376;16.744;2023-01-08T16:47:35;65;49;
67892;PMS7003;54688;52.376;16.744;2023-01-08T16:50:38;62;48;
67892;PMS7003;54688;52.376;16.744;2023-01-08T16:53:41;71;52;
67892;PMS7003;54688;52.376;16.744;2023-01-08T16:56:43;59;47;
67892;PMS7003;54688;52.376;16.744;2023-01-08T16:59:45;65;49;
67892;PMS7003;54688;52.376;16.744;2023-01-08T17:02:47;69;51;
67892;PMS7003;54688;52.376;16.744;2023-01-08T17:05:49;67;50;
67892;PMS7003;54688;52.376;16.744;2023-01-08T17:08:51;66;48;
67892;PMS7003;54688;52.376;16.744;2023-01-08T17:11:53;62;47;
67892;PMS7003;54688;52.376;16.744;2023-01-08T17:14:56;60;46;
67892;PMS7003;54688;52.376;16.744;2023-01-08T17:18:00;58;45;
67892;PMS7003;54688;52.376;16.744;2023-01-08T17:21:03;66;51;
67892;PMS7003;54688;52.376;16.744;2023-01-08T17:24:06;61;49;
67892;PMS7003;54688;52.376;16.744;2023-01-08T17:27:07;61;47;
67892;PMS7003;54688;52.376;16.744;2023-01-08T17:30:12;55;44;
67892;PMS7003;54688;52.376;16.744;2023-01-08T17:33:14;63;47;
67892;PMS7003;54688;52.376;16.744;2023-01-08T17:36:17;63;47;
67892;PMS7003;54688;52.376;16.744;2023-01-08T17:39:20;108;86;
67892;PMS7003;54688;52.376;16.744;2023-01-08T17:42:22;88;70;
67892;PMS7003;54688;52.376;16.744;2023-01-08T17:45:25;85;73;
67892;PMS7003;54688;52.376;16.744;2023-01-08T17:48:27;88;78;
67892;PMS7003;54688;52.376;16.744;2023-01-08T17:51:28;106;89;
67892;PMS7003;54688;52.376;16.744;2023-01-08T17:54:30;121;96;
67892;PMS7003;54688;52.376;16.744;2023-01-08T17:57:32;83;66;
67892;PMS7003;54688;52.376;16.744;2023-01-08T18:00:35;87;73;
67892;PMS7003;54688;52.376;16.744;2023-01-08T18:03:38;75;64;
67892;PMS7003;54688;52.376;16.744;2023-01-08T18:06:41;76;63;
67892;PMS7003;54688;52.376;16.744;2023-01-08T18:09:43;73;63;
67892;PMS7003;54688;52.376;16.744;2023-01-08T18:12:46;71;55;
67892;PMS7003;54688;52.376;16.744;2023-01-08T18:15:48;74;55;
67892;PMS7003;54688;52.376;16.744;2023-01-08T18:18:50;73;57;
67892;PMS7003;54688;52.376;16.744;2023-01-08T18:21:52;70;52;
67892;PMS7003;54688;52.376;16.744;2023-01-08T18:24:55;65;51;
67892;PMS7003;54688;52.376;16.744;2023-01-08T18:27:57;61;47;
67892;PMS7003;54688;52.376;16.744;2023-01-08T18:31:00;62;46;
67892;PMS7003;54688;52.376;16.744;2023-01-08T18:34:03;67;50;
67892;PMS7003;54688;52.376;16.744;2023-01-08T18:37:05;61;47;
67892;PMS7003;54688;52.376;16.744;2023-01-08T18:40:08;67;50;
67892;PMS7003;54688;52.376;16.744;2023-01-08T18:43:11;63;48;
67892;PMS7003;54688;52.376;16.744;2023-01-08T18:46:14;64;48;
67892;PMS7003;54688;52.376;16.744;2023-01-08T18:49:15;56;43;
67892;PMS7003;54688;52.376;16.744;2023-01-08T18:52:18;65;49;
67892;PMS7003;54688;52.376;16.744;2023-01-08T18:55:19;59;44;
67892;PMS7003;54688;52.376;16.744;2023-01-08T18:58:22;58;45;
67892;PMS7003;54688;52.376;16.744;2023-01-08T19:04:24;54;42;
67892;PMS7003;54688;52.376;16.744;2023-01-08T19:07:26;66;48;
67892;PMS7003;54688;52.376;16.744;2023-01-08T19:10:28;62;48;
67892;PMS7003;54688;52.376;16.744;2023-01-08T19:13:29;57;46;
67892;PMS7003;54688;52.376;16.744;2023-01-08T19:16:32;72;57;
67892;PMS7003;54688;52.376;16.744;2023-01-08T19:19:34;65;49;
67892;PMS7003;54688;52.376;16.744;2023-01-08T19:22:36;61;48;
67892;PMS7003;54688;52.376;16.744;2023-01-08T19:25:38;63;48;
67892;PMS7003;54688;52.376;16.744;2023-01-08T19:28:41;67;51;
67892;PMS7003;54688;52.376;16.744;2023-01-08T19:31:44;62;50;
67892;PMS7003;54688;52.376;16.744;2023-01-08T19:34:46;61;48;
67892;PMS7003;54688;52.376;16.744;2023-01-08T19:37:48;60;45;
67892;PMS7003;54688;52.376;16.744;2023-01-08T19:40:50;62;50;
67892;PMS7003;54688;52.376;16.744;2023-01-08T19:43:53;64;50;
67892;PMS7003;54688;52.376;16.744;2023-01-08T19:46:56;62;48;
67892;PMS7003;54688;52.376;16.744;2023-01-08T19:49:58;59;46;
67892;PMS7003;54688;52.376;16.744;2023-01-08T19:53:00;67;50;
67892;PMS7003;54688;52.376;16.744;2023-01-08T19:56:03;64;49;
67892;PMS7003;54688;52.376;16.744;2023-01-08T19:59:05;70;51;
67892;PMS7003;54688;52.376;16.744;2023-01-08T20:02:09;61;46;
67892;PMS7003;54688;52.376;16.744;2023-01-08T20:05:11;53;41;
67892;PMS7003;54688;52.376;16.744;2023-01-08T20:08:14;61;44;
67892;PMS7003;54688;52.376;16.744;2023-01-08T20:11:16;76;59;
67892;PMS7003;54688;52.376;16.744;2023-01-08T20:14:19;133;99;
67892;PMS7003;54688;52.376;16.744;2023-01-08T20:17:21;124;99;
67892;PMS7003;54688;52.376;16.744;2023-01-08T20:20:23;77;64;